sensor_id;sensor_type;location;lat;lon;timestamp;P1;durP1;ratioP1;P2;durP2;ratioP2
11572;SDS011;5842;52.426;4.886;2022-09-09T00:00:25;5.23;;;3.60;;
11572;SDS011;5842;52.426;4.886;2022-09-09T00:02:54;6.13;;;3.30;;
11572;SDS011;5842;52.426;4.886;2022-09-09T00:05:29;5.17;;;3.40;;
11572;SDS011;5842;52.426;4.886;2022-09-09T00:08:07;5.77;;;3.23;;
11572;SDS011;5842;52.426;4.886;2022-09-09T00:10:44;4.93;;;3.70;;
11572;SDS011;5842;52.426;4.886;2022-09-09T00:13:19;6.70;;;3.17;;
11572;SDS011;5842;52.426;4.886;2022-09-09T00:15:53;6.10;;;3.40;;
11572;SDS011;5842;52.426;4.886;2022-09-09T00:18:32;4.60;;;3.17;;
11572;SDS011;5842;52.426;4.886;2022-09-09T00:21:09;7.07;;;4.10;;
11572;SDS011;5842;52.426;4.886;2022-09-09T00:23:43;6.13;;;3.50;;
11572;SDS011;5842;52.426;4.886;2022-09-09T00:26:16;6.03;;;4.30;;
11572;SDS011;5842;52.426;4.886;2022-09-09T00:28:50;8.20;;;5.17;;
11572;SDS011;5842;52.426;4.886;2022-09-09T00:31:24;7.33;;;5.23;;
11572;SDS011;5842;52.426;4.886;2022-09-09T00:33:54;7.30;;;5.27;;
11572;SDS011;5842;52.426;4.886;2022-09-09T00:36:27;7.27;;;5.00;;
11572;SDS011;5842;52.426;4.886;2022-09-09T00:38:59;9.83;;;5.40;;
11572;SDS011;5842;52.426;4.886;2022-09-09T00:41:30;9.30;;;6.70;;
11572;SDS011;5842;52.426;4.886;2022-09-09T00:44:13;11.97;;;8.50;;
11572;SDS011;5842;52.426;4.886;2022-09-09T00:46:50;13.13;;;7.97;;
11572;SDS011;5842;52.426;4.886;2022-09-09T00:49:35;9.67;;;7.33;;
11572;SDS011;5842;52.426;4.886;2022-09-09T00:52:15;11.37;;;8.70;;
11572;SDS011;5842;52.426;4.886;2022-09-09T00:54:56;10.87;;;8.27;;
11572;SDS011;5842;52.426;4.886;2022-09-09T00:57:32;17.03;;;11.90;;
11572;SDS011;5842;52.426;4.886;2022-09-09T01:00:16;15.83;;;10.70;;
11572;SDS011;5842;52.426;4.886;2022-09-09T01:02:49;14.13;;;10.03;;
11572;SDS011;5842;52.426;4.886;2022-09-09T01:05:25;16.43;;;11.53;;
11572;SDS011;5842;52.426;4.886;2022-09-09T01:08:01;13.83;;;10.27;;
11572;SDS011;5842;52.426;4.886;2022-09-09T01:10:36;16.43;;;10.60;;
11572;SDS011;5842;52.426;4.886;2022-09-09T01:13:11;19.17;;;12.17;;
11572;SDS011;5842;52.426;4.886;2022-09-09T01:15:45;15.13;;;11.67;;
11572;SDS011;5842;52.426;4.886;2022-09-09T01:18:15;16.07;;;11.83;;
11572;SDS011;5842;52.426;4.886;2022-09-09T01:20:47;17.60;;;12.00;;
11572;SDS011;5842;52.426;4.886;2022-09-09T01:23:26;15.80;;;10.50;;
11572;SDS011;5842;52.426;4.886;2022-09-09T01:28:55;19.07;;;15.43;;
11572;SDS011;5842;52.426;4.886;2022-09-09T01:31:26;20.60;;;15.40;;
11572;SDS011;5842;52.426;4.886;2022-09-09T01:33:55;24.07;;;18.03;;
11572;SDS011;5842;52.426;4.886;2022-09-09T01:36:24;25.83;;;17.80;;
11572;SDS011;5842;52.426;4.886;2022-09-09T01:38:58;18.77;;;13.13;;
11572;SDS011;5842;52.426;4.886;2022-09-09T01:41:27;17.97;;;12.07;;
11572;SDS011;5842;52.426;4.886;2022-09-09T01:43:57;14.47;;;11.47;;
11572;SDS011;5842;52.426;4.886;2022-09-09T01:46:24;21.27;;;16.07;;
11572;SDS011;5842;52.426;4.886;2022-09-09T01:48:51;25.57;;;17.47;;
11572;SDS011;5842;52.426;4.886;2022-09-09T01:51:19;21.47;;;16.07;;
11572;SDS011;5842;52.426;4.886;2022-09-09T01:53:46;24.47;;;14.00;;
11572;SDS011;5842;52.426;4.886;2022-09-09T01:56:20;21.47;;;13.43;;
11572;SDS011;5842;52.426;4.886;2022-09-09T01:59:09;18.83;;;13.43;;
11572;SDS011;5842;52.426;4.886;2022-09-09T02:01:57;20.53;;;14.67;;
11572;SDS011;5842;52.426;4.886;2022-09-09T02:04:35;18.27;;;13.10;;
11572;SDS011;5842;52.426;4.886;2022-09-09T02:07:06;20.50;;;13.83;;
11572;SDS011;5842;52.426;4.886;2022-09-09T02:09:51;18.77;;;13.10;;
11572;SDS011;5842;52.426;4.886;2022-09-09T02:12:25;21.13;;;14.40;;
11572;SDS011;5842;52.426;4.886;2022-09-09T02:14:58;22.83;;;14.20;;
11572;SDS011;5842;52.426;4.886;2022-09-09T02:17:30;21.43;;;14.93;;
11572;SDS011;5842;52.426;4.886;2022-09-09T02:20:03;25.10;;;16.37;;
11572;SDS011;5842;52.426;4.886;2022-09-09T02:22:34;22.83;;;17.20;;
11572;SDS011;5842;52.426;4.886;2022-09-09T02:25:05;25.53;;;18.10;;
11572;SDS011;5842;52.426;4.886;2022-09-09T02:27:34;22.17;;;18.03;;
11572;SDS011;5842;52.426;4.886;2022-09-09T02:30:03;25.17;;;17.53;;
11572;SDS011;5842;52.426;4.886;2022-09-09T02:32:32;22.53;;;15.60;;
11572;SDS011;5842;52.426;4.886;2022-09-09T02:35:02;26.40;;;18.83;;
11572;SDS011;5842;52.426;4.886;2022-09-09T02:37:34;22.17;;;16.87;;
11572;SDS011;5842;52.426;4.886;2022-09-09T02:40:03;24.37;;;17.07;;
11572;SDS011;5842;52.426;4.886;2022-09-09T02:42:38;20.80;;;16.60;;
11572;SDS011;5842;52.426;4.886;2022-09-09T02:45:08;21.13;;;15.70;;
11572;SDS011;5842;52.426;4.886;2022-09-09T02:47:42;23.27;;;17.40;;
11572;SDS011;5842;52.426;4.886;2022-09-09T02:50:17;23.43;;;17.77;;
11572;SDS011;5842;52.426;4.886;2022-09-09T02:52:55;22.17;;;16.57;;
11572;SDS011;5842;52.426;4.886;2022-09-09T02:55:35;24.63;;;16.90;;
11572;SDS011;5842;52.426;4.886;2022-09-09T02:58:08;22.40;;;15.43;;
11572;SDS011;5842;52.426;4.886;2022-09-09T03:00:39;22.73;;;15.83;;
11572;SDS011;5842;52.426;4.886;2022-09-09T03:03:07;20.70;;;15.80;;
11572;SDS011;5842;52.426;4.886;2022-09-09T03:05:35;20.57;;;15.03;;
11572;SDS011;5842;52.426;4.886;2022-09-09T03:08:04;19.70;;;13.87;;
11572;SDS011;5842;52.426;4.886;2022-09-09T03:10:31;18.87;;;14.07;;
11572;SDS011;5842;52.426;4.886;2022-09-09T03:12:59;22.03;;;14.97;;
11572;SDS011;5842;52.426;4.886;2022-09-09T03:15:27;20.77;;;14.00;;
11572;SDS011;5842;52.426;4.886;2022-09-09T03:17:58;17.57;;;12.70;;
11572;SDS011;5842;52.426;4.886;2022-09-09T03:20:26;20.53;;;14.83;;
11572;SDS011;5842;52.426;4.886;2022-09-09T03:22:54;18.73;;;13.83;;
11572;SDS011;5842;52.426;4.886;2022-09-09T03:25:22;18.43;;;13.10;;
11572;SDS011;5842;52.426;4.886;2022-09-09T03:27:50;17.47;;;13.17;;
11572;SDS011;5842;52.426;4.886;2022-09-09T03:30:19;23.03;;;14.07;;
11572;SDS011;5842;52.426;4.886;2022-09-09T03:32:46;18.13;;;13.40;;
11572;SDS011;5842;52.426;4.886;2022-09-09T03:35:15;17.60;;;13.50;;
11572;SDS011;5842;52.426;4.886;2022-09-09T03:37:43;19.43;;;14.50;;
11572;SDS011;5842;52.426;4.886;2022-09-09T03:40:11;19.07;;;14.60;;
11572;SDS011;5842;52.426;4.886;2022-09-09T03:42:38;19.00;;;13.87;;
11572;SDS011;5842;52.426;4.886;2022-09-09T03:45:06;19.50;;;13.30;;
11572;SDS011;5842;52.426;4.886;2022-09-09T03:47:35;20.40;;;13.43;;
11572;SDS011;5842;52.426;4.886;2022-09-09T03:50:03;20.60;;;13.53;;
11572;SDS011;5842;52.426;4.886;2022-09-09T03:52:35;19.30;;;13.70;;
11572;SDS011;5842;52.426;4.886;2022-09-09T03:55:03;17.17;;;12.80;;
11572;SDS011;5842;52.426;4.886;2022-09-09T03:57:31;18.23;;;13.10;;
11572;SDS011;5842;52.426;4.886;2022-09-09T04:00:00;21.27;;;13.60;;
11572;SDS011;5842;52.426;4.886;2022-09-09T04:02:28;21.03;;;13.23;;
11572;SDS011;5842;52.426;4.886;2022-09-09T04:04:55;21.80;;;13.67;;
11572;SDS011;5842;52.426;4.886;2022-09-09T04:07:22;20.37;;;13.37;;
11572;SDS011;5842;52.426;4.886;2022-09-09T04:09:51;17.97;;;12.47;;
11572;SDS011;5842;52.426;4.886;2022-09-09T04:12:19;21.17;;;13.40;;
11572;SDS011;5842;52.426;4.886;2022-09-09T04:14:47;15.63;;;12.00;;
11572;SDS011;5842;52.426;4.886;2022-09-09T04:17:14;18.53;;;13.17;;
11572;SDS011;5842;52.426;4.886;2022-09-09T04:19:42;19.53;;;13.00;;
11572;SDS011;5842;52.426;4.886;2022-09-09T04:22:09;17.83;;;12.90;;
11572;SDS011;5842;52.426;4.886;2022-09-09T04:24:36;19.57;;;13.13;;
11572;SDS011;5842;52.426;4.886;2022-09-09T04:27:05;23.17;;;14.00;;
11572;SDS011;5842;52.426;4.886;2022-09-09T04:29:33;17.97;;;12.67;;
11572;SDS011;5842;52.426;4.886;2022-09-09T04:32:01;17.63;;;12.57;;
11572;SDS011;5842;52.426;4.886;2022-09-09T04:34:28;23.07;;;12.57;;
11572;SDS011;5842;52.426;4.886;2022-09-09T04:36:56;18.90;;;12.63;;
11572;SDS011;5842;52.426;4.886;2022-09-09T04:39:24;16.50;;;11.87;;
11572;SDS011;5842;52.426;4.886;2022-09-09T04:41:51;17.13;;;11.20;;
11572;SDS011;5842;52.426;4.886;2022-09-09T04:44:20;19.13;;;11.93;;
11572;SDS011;5842;52.426;4.886;2022-09-09T04:46:47;15.90;;;10.80;;
11572;SDS011;5842;52.426;4.886;2022-09-09T04:49:14;14.20;;;10.37;;
11572;SDS011;5842;52.426;4.886;2022-09-09T04:51:42;13.73;;;9.40;;
11572;SDS011;5842;52.426;4.886;2022-09-09T04:54:09;16.33;;;10.30;;
11572;SDS011;5842;52.426;4.886;2022-09-09T04:56:36;14.50;;;9.90;;
11572;SDS011;5842;52.426;4.886;2022-09-09T04:59:03;15.50;;;9.47;;
11572;SDS011;5842;52.426;4.886;2022-09-09T05:01:32;14.00;;;9.20;;
11572;SDS011;5842;52.426;4.886;2022-09-09T05:03:59;15.13;;;8.90;;
11572;SDS011;5842;52.426;4.886;2022-09-09T05:06:27;14.67;;;8.80;;
11572;SDS011;5842;52.426;4.886;2022-09-09T05:08:56;11.23;;;8.17;;
11572;SDS011;5842;52.426;4.886;2022-09-09T05:11:25;10.97;;;7.67;;
11572;SDS011;5842;52.426;4.886;2022-09-09T05:13:53;16.27;;;8.07;;
11572;SDS011;5842;52.426;4.886;2022-09-09T05:16:21;11.70;;;7.33;;
11572;SDS011;5842;52.426;4.886;2022-09-09T05:18:53;11.23;;;6.83;;
11572;SDS011;5842;52.426;4.886;2022-09-09T05:21:21;12.23;;;6.67;;
11572;SDS011;5842;52.426;4.886;2022-09-09T05:23:50;10.90;;;6.70;;
11572;SDS011;5842;52.426;4.886;2022-09-09T05:26:21;9.43;;;6.13;;
11572;SDS011;5842;52.426;4.886;2022-09-09T05:28:49;10.40;;;6.07;;
11572;SDS011;5842;52.426;4.886;2022-09-09T05:31:16;9.53;;;5.80;;
11572;SDS011;5842;52.426;4.886;2022-09-09T05:33:45;8.90;;;5.40;;
11572;SDS011;5842;52.426;4.886;2022-09-09T05:36:15;11.90;;;6.00;;
11572;SDS011;5842;52.426;4.886;2022-09-09T05:38:43;11.10;;;5.50;;
11572;SDS011;5842;52.426;4.886;2022-09-09T05:41:11;10.73;;;5.47;;
11572;SDS011;5842;52.426;4.886;2022-09-09T05:43:40;9.13;;;5.27;;
11572;SDS011;5842;52.426;4.886;2022-09-09T05:46:10;6.80;;;4.50;;
11572;SDS011;5842;52.426;4.886;2022-09-09T05:48:40;9.63;;;5.23;;
11572;SDS011;5842;52.426;4.886;2022-09-09T05:51:09;11.00;;;5.30;;
11572;SDS011;5842;52.426;4.886;2022-09-09T05:53:43;8.70;;;5.07;;
11572;SDS011;5842;52.426;4.886;2022-09-09T05:56:12;10.47;;;4.50;;
11572;SDS011;5842;52.426;4.886;2022-09-09T05:58:44;8.20;;;4.87;;
11572;SDS011;5842;52.426;4.886;2022-09-09T06:01:13;10.93;;;4.97;;
11572;SDS011;5842;52.426;4.886;2022-09-09T06:03:42;6.73;;;4.50;;
11572;SDS011;5842;52.426;4.886;2022-09-09T06:06:11;8.33;;;4.60;;
11572;SDS011;5842;52.426;4.886;2022-09-09T06:08:40;8.53;;;4.73;;
11572;SDS011;5842;52.426;4.886;2022-09-09T06:11:11;8.90;;;4.30;;
11572;SDS011;5842;52.426;4.886;2022-09-09T06:13:39;6.30;;;3.93;;
11572;SDS011;5842;52.426;4.886;2022-09-09T06:16:07;8.40;;;3.90;;
11572;SDS011;5842;52.426;4.886;2022-09-09T06:18:36;10.57;;;4.13;;
11572;SDS011;5842;52.426;4.886;2022-09-09T06:21:04;7.33;;;3.80;;
11572;SDS011;5842;52.426;4.886;2022-09-09T06:23:33;9.57;;;4.20;;
11572;SDS011;5842;52.426;4.886;2022-09-09T06:26:04;6.83;;;3.80;;
11572;SDS011;5842;52.426;4.886;2022-09-09T06:28:34;7.43;;;3.70;;
11572;SDS011;5842;52.426;4.886;2022-09-09T06:31:03;7.47;;;3.83;;
11572;SDS011;5842;52.426;4.886;2022-09-09T06:33:31;6.67;;;3.57;;
11572;SDS011;5842;52.426;4.886;2022-09-09T06:36:00;9.73;;;4.33;;
11572;SDS011;5842;52.426;4.886;2022-09-09T06:38:28;7.10;;;3.87;;
11572;SDS011;5842;52.426;4.886;2022-09-09T06:40:56;8.67;;;3.83;;
11572;SDS011;5842;52.426;4.886;2022-09-09T06:43:25;9.47;;;4.20;;
11572;SDS011;5842;52.426;4.886;2022-09-09T06:45:55;6.20;;;4.17;;
11572;SDS011;5842;52.426;4.886;2022-09-09T06:48:23;8.63;;;3.97;;
11572;SDS011;5842;52.426;4.886;2022-09-09T06:50:51;9.43;;;4.20;;
11572;SDS011;5842;52.426;4.886;2022-09-09T06:53:19;8.53;;;4.10;;
11572;SDS011;5842;52.426;4.886;2022-09-09T06:55:46;5.87;;;3.53;;
11572;SDS011;5842;52.426;4.886;2022-09-09T06:58:13;9.70;;;4.20;;
11572;SDS011;5842;52.426;4.886;2022-09-09T07:00:40;12.07;;;5.30;;
11572;SDS011;5842;52.426;4.886;2022-09-09T07:03:10;10.40;;;5.17;;
11572;SDS011;5842;52.426;4.886;2022-09-09T07:05:37;10.23;;;5.33;;
11572;SDS011;5842;52.426;4.886;2022-09-09T07:08:04;9.00;;;4.90;;
11572;SDS011;5842;52.426;4.886;2022-09-09T07:10:31;8.50;;;5.17;;
11572;SDS011;5842;52.426;4.886;2022-09-09T07:13:01;8.67;;;4.87;;
11572;SDS011;5842;52.426;4.886;2022-09-09T07:15:30;7.77;;;4.80;;
11572;SDS011;5842;52.426;4.886;2022-09-09T07:18:00;10.17;;;5.77;;
11572;SDS011;5842;52.426;4.886;2022-09-09T07:20:29;10.77;;;5.40;;
11572;SDS011;5842;52.426;4.886;2022-09-09T07:38:47;11.50;;;6.50;;
11572;SDS011;5842;52.426;4.886;2022-09-09T07:41:16;10.90;;;6.45;;
11572;SDS011;5842;52.426;4.886;2022-09-09T07:43:47;11.23;;;6.80;;
11572;SDS011;5842;52.426;4.886;2022-09-09T07:46:15;9.13;;;6.63;;
11572;SDS011;5842;52.426;4.886;2022-09-09T07:48:45;12.33;;;6.70;;
11572;SDS011;5842;52.426;4.886;2022-09-09T07:51:22;10.33;;;6.40;;
11572;SDS011;5842;52.426;4.886;2022-09-09T07:53:53;13.53;;;6.60;;
11572;SDS011;5842;52.426;4.886;2022-09-09T07:56:22;10.60;;;6.60;;
11572;SDS011;5842;52.426;4.886;2022-09-09T07:58:51;10.60;;;6.07;;
11572;SDS011;5842;52.426;4.886;2022-09-09T08:01:20;10.97;;;6.33;;
11572;SDS011;5842;52.426;4.886;2022-09-09T08:03:52;10.50;;;6.70;;
11572;SDS011;5842;52.426;4.886;2022-09-09T08:06:21;10.60;;;6.77;;
11572;SDS011;5842;52.426;4.886;2022-09-09T08:08:50;12.03;;;6.27;;
11572;SDS011;5842;52.426;4.886;2022-09-09T08:11:19;9.87;;;6.40;;
11572;SDS011;5842;52.426;4.886;2022-09-09T08:13:48;11.40;;;6.47;;
11572;SDS011;5842;52.426;4.886;2022-09-09T08:16:17;7.83;;;5.80;;
11572;SDS011;5842;52.426;4.886;2022-09-09T08:18:46;10.20;;;6.10;;
11572;SDS011;5842;52.426;4.886;2022-09-09T08:21:17;9.57;;;5.97;;
11572;SDS011;5842;52.426;4.886;2022-09-09T08:23:46;10.87;;;5.50;;
11572;SDS011;5842;52.426;4.886;2022-09-09T08:26:15;11.70;;;6.00;;
11572;SDS011;5842;52.426;4.886;2022-09-09T08:28:46;11.47;;;6.00;;
11572;SDS011;5842;52.426;4.886;2022-09-09T08:31:14;12.80;;;5.87;;
11572;SDS011;5842;52.426;4.886;2022-09-09T08:33:43;11.27;;;5.77;;
11572;SDS011;5842;52.426;4.886;2022-09-09T08:36:12;10.37;;;5.60;;
11572;SDS011;5842;52.426;4.886;2022-09-09T08:38:41;9.77;;;5.80;;
11572;SDS011;5842;52.426;4.886;2022-09-09T08:41:16;12.03;;;6.13;;
11572;SDS011;5842;52.426;4.886;2022-09-09T08:44:00;11.10;;;6.53;;
11572;SDS011;5842;52.426;4.886;2022-09-09T08:46:32;9.30;;;5.90;;
11572;SDS011;5842;52.426;4.886;2022-09-09T08:49:10;13.00;;;6.20;;
11572;SDS011;5842;52.426;4.886;2022-09-09T08:51:44;10.63;;;6.03;;
11572;SDS011;5842;52.426;4.886;2022-09-09T08:54:12;11.43;;;6.57;;
11572;SDS011;5842;52.426;4.886;2022-09-09T08:56:39;8.80;;;5.63;;
11572;SDS011;5842;52.426;4.886;2022-09-09T08:59:08;10.80;;;5.97;;
11572;SDS011;5842;52.426;4.886;2022-09-09T09:01:48;9.50;;;5.87;;
11572;SDS011;5842;52.426;4.886;2022-09-09T09:04:26;8.77;;;5.63;;
11572;SDS011;5842;52.426;4.886;2022-09-09T09:07:03;10.10;;;5.83;;
11572;SDS011;5842;52.426;4.886;2022-09-09T09:09:38;9.50;;;5.53;;
11572;SDS011;5842;52.426;4.886;2022-09-09T09:12:15;8.83;;;5.53;;
11572;SDS011;5842;52.426;4.886;2022-09-09T09:14:46;10.03;;;5.80;;
11572;SDS011;5842;52.426;4.886;2022-09-09T09:17:14;9.77;;;5.60;;
11572;SDS011;5842;52.426;4.886;2022-09-09T09:19:44;8.70;;;5.60;;
11572;SDS011;5842;52.426;4.886;2022-09-09T09:22:15;9.07;;;5.40;;
11572;SDS011;5842;52.426;4.886;2022-09-09T09:24:47;8.40;;;5.50;;
11572;SDS011;5842;52.426;4.886;2022-09-09T09:27:21;7.13;;;5.30;;
11572;SDS011;5842;52.426;4.886;2022-09-09T09:29:59;9.07;;;5.60;;
11572;SDS011;5842;52.426;4.886;2022-09-09T09:32:33;11.80;;;5.60;;
11572;SDS011;5842;52.426;4.886;2022-09-09T09:35:06;10.77;;;5.37;;
11572;SDS011;5842;52.426;4.886;2022-09-09T09:37:39;10.33;;;5.63;;
11572;SDS011;5842;52.426;4.886;2022-09-09T09:40:09;11.53;;;5.90;;
11572;SDS011;5842;52.426;4.886;2022-09-09T09:42:37;12.17;;;5.70;;
11572;SDS011;5842;52.426;4.886;2022-09-09T09:45:16;11.37;;;6.20;;
11572;SDS011;5842;52.426;4.886;2022-09-09T09:48:00;10.17;;;5.30;;
11572;SDS011;5842;52.426;4.886;2022-09-09T09:50:29;12.20;;;5.83;;
11572;SDS011;5842;52.426;4.886;2022-09-09T09:52:58;9.40;;;5.47;;
11572;SDS011;5842;52.426;4.886;2022-09-09T09:55:27;8.03;;;5.13;;
11572;SDS011;5842;52.426;4.886;2022-09-09T09:58:00;10.23;;;5.60;;
11572;SDS011;5842;52.426;4.886;2022-09-09T10:00:31;11.43;;;5.57;;
11572;SDS011;5842;52.426;4.886;2022-09-09T10:03:00;8.73;;;5.13;;
11572;SDS011;5842;52.426;4.886;2022-09-09T10:05:30;9.90;;;5.07;;
11572;SDS011;5842;52.426;4.886;2022-09-09T10:08:05;11.87;;;5.20;;
11572;SDS011;5842;52.426;4.886;2022-09-09T10:10:42;7.87;;;4.80;;
11572;SDS011;5842;52.426;4.886;2022-09-09T10:13:23;12.30;;;4.83;;
11572;SDS011;5842;52.426;4.886;2022-09-09T10:16:01;9.33;;;5.00;;
11572;SDS011;5842;52.426;4.886;2022-09-09T10:18:52;13.30;;;4.80;;
11572;SDS011;5842;52.426;4.886;2022-09-09T10:21:32;8.60;;;5.20;;
11572;SDS011;5842;52.426;4.886;2022-09-09T10:38:14;10.73;;;4.17;;
11572;SDS011;5842;52.426;4.886;2022-09-09T10:40:47;9.00;;;4.03;;
11572;SDS011;5842;52.426;4.886;2022-09-09T10:46:48;7.37;;;3.77;;
11572;SDS011;5842;52.426;4.886;2022-09-09T10:49:28;5.73;;;3.43;;
11572;SDS011;5842;52.426;4.886;2022-09-09T10:52:09;8.00;;;3.70;;
11572;SDS011;5842;52.426;4.886;2022-09-09T10:54:51;5.17;;;3.70;;
11572;SDS011;5842;52.426;4.886;2022-09-09T10:57:27;6.73;;;3.43;;
11572;SDS011;5842;52.426;4.886;2022-09-09T11:00:02;5.93;;;3.00;;
11572;SDS011;5842;52.426;4.886;2022-09-09T11:02:32;9.03;;;3.40;;
11572;SDS011;5842;52.426;4.886;2022-09-09T11:05:02;7.23;;;3.57;;
11572;SDS011;5842;52.426;4.886;2022-09-09T11:07:34;8.17;;;3.13;;
11572;SDS011;5842;52.426;4.886;2022-09-09T11:10:15;6.83;;;3.43;;
11572;SDS011;5842;52.426;4.886;2022-09-09T11:12:49;6.37;;;3.33;;
11572;SDS011;5842;52.426;4.886;2022-09-09T11:15:23;6.80;;;3.50;;
11572;SDS011;5842;52.426;4.886;2022-09-09T11:17:58;5.30;;;3.20;;
11572;SDS011;5842;52.426;4.886;2022-09-09T11:20:28;8.53;;;3.53;;
11572;SDS011;5842;52.426;4.886;2022-09-09T11:22:58;7.20;;;3.50;;
11572;SDS011;5842;52.426;4.886;2022-09-09T11:25:31;6.17;;;3.43;;
11572;SDS011;5842;52.426;4.886;2022-09-09T11:28:07;7.37;;;3.50;;
11572;SDS011;5842;52.426;4.886;2022-09-09T11:30:54;5.13;;;3.40;;
11572;SDS011;5842;52.426;4.886;2022-09-09T11:33:37;6.77;;;3.20;;
11572;SDS011;5842;52.426;4.886;2022-09-09T11:36:38;5.57;;;3.03;;
11572;SDS011;5842;52.426;4.886;2022-09-09T11:42:18;6.30;;;3.23;;
11572;SDS011;5842;52.426;4.886;2022-09-09T11:44:47;5.50;;;3.30;;
11572;SDS011;5842;52.426;4.886;2022-09-09T11:47:22;8.20;;;3.47;;
11572;SDS011;5842;52.426;4.886;2022-09-09T11:49:54;7.40;;;3.20;;
11572;SDS011;5842;52.426;4.886;2022-09-09T11:52:23;4.73;;;3.30;;
11572;SDS011;5842;52.426;4.886;2022-09-09T11:54:51;6.67;;;3.03;;
11572;SDS011;5842;52.426;4.886;2022-09-09T11:57:29;5.60;;;3.20;;
11572;SDS011;5842;52.426;4.886;2022-09-09T12:00:01;5.97;;;3.03;;
11572;SDS011;5842;52.426;4.886;2022-09-09T12:02:29;6.40;;;3.17;;
11572;SDS011;5842;52.426;4.886;2022-09-09T12:04:58;5.53;;;3.23;;
11572;SDS011;5842;52.426;4.886;2022-09-09T12:07:32;5.73;;;2.97;;
11572;SDS011;5842;52.426;4.886;2022-09-09T12:10:03;4.83;;;3.27;;
11572;SDS011;5842;52.426;4.886;2022-09-09T12:12:47;6.33;;;3.03;;
11572;SDS011;5842;52.426;4.886;2022-09-09T12:15:27;4.63;;;3.00;;
11572;SDS011;5842;52.426;4.886;2022-09-09T12:17:56;4.80;;;3.10;;
11572;SDS011;5842;52.426;4.886;2022-09-09T12:20:30;4.47;;;3.23;;
11572;SDS011;5842;52.426;4.886;2022-09-09T12:23:18;4.73;;;3.00;;
11572;SDS011;5842;52.426;4.886;2022-09-09T12:25:57;3.93;;;2.23;;
11572;SDS011;5842;52.426;4.886;2022-09-09T12:28:41;4.10;;;2.50;;
11572;SDS011;5842;52.426;4.886;2022-09-09T12:31:17;3.40;;;2.50;;
11572;SDS011;5842;52.426;4.886;2022-09-09T12:33:47;4.67;;;2.70;;
11572;SDS011;5842;52.426;4.886;2022-09-09T12:36:15;5.23;;;2.57;;
11572;SDS011;5842;52.426;4.886;2022-09-09T12:38:45;3.63;;;2.63;;
11572;SDS011;5842;52.426;4.886;2022-09-09T12:41:18;6.20;;;2.53;;
11572;SDS011;5842;52.426;4.886;2022-09-09T12:43:48;4.00;;;2.70;;
11572;SDS011;5842;52.426;4.886;2022-09-09T12:46:19;3.90;;;2.80;;
11572;SDS011;5842;52.426;4.886;2022-09-09T12:48:52;7.30;;;3.40;;
11572;SDS011;5842;52.426;4.886;2022-09-09T12:51:22;4.03;;;2.80;;
11572;SDS011;5842;52.426;4.886;2022-09-09T12:53:53;8.27;;;3.67;;
11572;SDS011;5842;52.426;4.886;2022-09-09T12:56:21;5.20;;;3.30;;
11572;SDS011;5842;52.426;4.886;2022-09-09T12:58:53;7.53;;;3.50;;
11572;SDS011;5842;52.426;4.886;2022-09-09T13:01:24;6.10;;;3.60;;
11572;SDS011;5842;52.426;4.886;2022-09-09T13:03:52;7.17;;;3.80;;
11572;SDS011;5842;52.426;4.886;2022-09-09T13:06:20;5.47;;;4.00;;
11572;SDS011;5842;52.426;4.886;2022-09-09T13:08:49;6.20;;;3.90;;
11572;SDS011;5842;52.426;4.886;2022-09-09T13:11:17;5.33;;;4.40;;
11572;SDS011;5842;52.426;4.886;2022-09-09T13:13:50;8.57;;;4.90;;
11572;SDS011;5842;52.426;4.886;2022-09-09T13:16:21;6.97;;;4.90;;
11572;SDS011;5842;52.426;4.886;2022-09-09T13:18:51;8.30;;;4.80;;
11572;SDS011;5842;52.426;4.886;2022-09-09T13:21:30;5.00;;;4.10;;
11572;SDS011;5842;52.426;4.886;2022-09-09T13:23:59;3.97;;;3.50;;
11572;SDS011;5842;52.426;4.886;2022-09-09T13:26:28;7.30;;;3.90;;
11572;SDS011;5842;52.426;4.886;2022-09-09T13:29:13;7.80;;;4.10;;
11572;SDS011;5842;52.426;4.886;2022-09-09T13:31:44;5.07;;;3.47;;
11572;SDS011;5842;52.426;4.886;2022-09-09T13:34:28;4.77;;;3.80;;
11572;SDS011;5842;52.426;4.886;2022-09-09T13:37:28;4.57;;;3.97;;
11572;SDS011;5842;52.426;4.886;2022-09-09T13:40:27;5.20;;;4.10;;
11572;SDS011;5842;52.426;4.886;2022-09-09T13:43:21;6.23;;;4.17;;
11572;SDS011;5842;52.426;4.886;2022-09-09T13:52:49;4.07;;;3.13;;
11572;SDS011;5842;52.426;4.886;2022-09-09T13:55:53;5.33;;;3.50;;
11572;SDS011;5842;52.426;4.886;2022-09-09T13:58:53;3.70;;;3.10;;
11572;SDS011;5842;52.426;4.886;2022-09-09T14:01:57;4.87;;;2.90;;
11572;SDS011;5842;52.426;4.886;2022-09-09T14:08:09;6.87;;;3.30;;
11572;SDS011;5842;52.426;4.886;2022-09-09T14:11:17;3.57;;;3.03;;
11572;SDS011;5842;52.426;4.886;2022-09-09T14:14:04;4.73;;;3.17;;
11572;SDS011;5842;52.426;4.886;2022-09-09T14:16:42;4.70;;;2.90;;
11572;SDS011;5842;52.426;4.886;2022-09-09T14:19:43;4.07;;;2.57;;
11572;SDS011;5842;52.426;4.886;2022-09-09T14:23:05;4.73;;;2.57;;
11572;SDS011;5842;52.426;4.886;2022-09-09T14:26:05;3.87;;;2.50;;
11572;SDS011;5842;52.426;4.886;2022-09-09T14:29:05;4.30;;;2.53;;
11572;SDS011;5842;52.426;4.886;2022-09-09T14:32:02;3.53;;;2.63;;
11572;SDS011;5842;52.426;4.886;2022-09-09T14:34:56;4.77;;;2.47;;
11572;SDS011;5842;52.426;4.886;2022-09-09T14:37:30;2.53;;;2.00;;
11572;SDS011;5842;52.426;4.886;2022-09-09T14:40:11;3.27;;;2.10;;
11572;SDS011;5842;52.426;4.886;2022-09-09T14:42:46;4.13;;;2.33;;
11572;SDS011;5842;52.426;4.886;2022-09-09T14:45:28;3.80;;;2.47;;
11572;SDS011;5842;52.426;4.886;2022-09-09T14:47:55;4.17;;;2.50;;
11572;SDS011;5842;52.426;4.886;2022-09-09T14:50:24;3.47;;;2.53;;
11572;SDS011;5842;52.426;4.886;2022-09-09T14:52:51;3.80;;;2.80;;
11572;SDS011;5842;52.426;4.886;2022-09-09T14:58:31;4.63;;;2.50;;
11572;SDS011;5842;52.426;4.886;2022-09-09T15:01:15;5.23;;;2.63;;
11572;SDS011;5842;52.426;4.886;2022-09-09T15:04:07;5.30;;;2.70;;
11572;SDS011;5842;52.426;4.886;2022-09-09T15:06:38;5.17;;;2.60;;
11572;SDS011;5842;52.426;4.886;2022-09-09T15:09:07;3.60;;;2.50;;
11572;SDS011;5842;52.426;4.886;2022-09-09T15:11:45;3.73;;;2.43;;
11572;SDS011;5842;52.426;4.886;2022-09-09T15:14:37;4.13;;;2.40;;
11572;SDS011;5842;52.426;4.886;2022-09-09T15:17:05;6.20;;;2.33;;
11572;SDS011;5842;52.426;4.886;2022-09-09T15:19:36;4.60;;;2.30;;
11572;SDS011;5842;52.426;4.886;2022-09-09T15:22:03;5.30;;;2.10;;
11572;SDS011;5842;52.426;4.886;2022-09-09T15:24:32;3.20;;;1.90;;
11572;SDS011;5842;52.426;4.886;2022-09-09T15:27:01;4.17;;;2.03;;
11572;SDS011;5842;52.426;4.886;2022-09-09T15:29:29;6.57;;;1.97;;
11572;SDS011;5842;52.426;4.886;2022-09-09T15:31:56;4.30;;;1.70;;
11572;SDS011;5842;52.426;4.886;2022-09-09T15:34:23;4.17;;;1.70;;
11572;SDS011;5842;52.426;4.886;2022-09-09T15:36:50;2.73;;;1.90;;
11572;SDS011;5842;52.426;4.886;2022-09-09T15:39:18;3.57;;;1.70;;
11572;SDS011;5842;52.426;4.886;2022-09-09T15:41:47;3.53;;;1.87;;
11572;SDS011;5842;52.426;4.886;2022-09-09T15:47:26;5.03;;;1.97;;
11572;SDS011;5842;52.426;4.886;2022-09-09T15:49:57;4.53;;;1.97;;
11572;SDS011;5842;52.426;4.886;2022-09-09T15:52:43;4.77;;;2.33;;
11572;SDS011;5842;52.426;4.886;2022-09-09T15:55:11;4.10;;;2.60;;
11572;SDS011;5842;52.426;4.886;2022-09-09T15:58:00;7.03;;;3.97;;
11572;SDS011;5842;52.426;4.886;2022-09-09T16:00:35;9.73;;;4.40;;
11572;SDS011;5842;52.426;4.886;2022-09-09T16:03:39;6.30;;;3.67;;
11572;SDS011;5842;52.426;4.886;2022-09-09T16:06:14;7.63;;;3.70;;
11572;SDS011;5842;52.426;4.886;2022-09-09T16:09:03;7.63;;;3.20;;
11572;SDS011;5842;52.426;4.886;2022-09-09T16:11:32;4.13;;;2.70;;
11572;SDS011;5842;52.426;4.886;2022-09-09T16:14:04;6.27;;;2.60;;
11572;SDS011;5842;52.426;4.886;2022-09-09T16:16:41;8.20;;;3.97;;
11572;SDS011;5842;52.426;4.886;2022-09-09T16:19:34;7.83;;;4.70;;
11572;SDS011;5842;52.426;4.886;2022-09-09T16:22:09;9.57;;;5.37;;